<?xml version="1.0" encoding="UTF-8" standalone="no" ?>
<gpx xmlns="http://www.topografix.com/GPX/1/1" xmlns:xsi="http://www.w3.org/2001/XMLSchema-instance" xsi:schemaLocation="http://www.topografix.com/GPX/1/1 http://www.topografix.com/GPX/1/1/gpx.xsd" version="1.1" creator="VisuGPX - https://www.visugpx.com">
  <metadata>
    <name>Saint-Paul-Trois-Châteaux:Val des Nymphes 1</name>
  </metadata>
  <wpt lat="44.34195" lon="4.79076">
    <ele>101</ele>
    <name><![CDATA[la justice]]></name>
  </wpt>
  <wpt lat="44.35676" lon="4.80652">
    <ele>197.8</ele>
    <name><![CDATA[combe guillon]]></name>
  </wpt>
  <wpt lat="44.37116" lon="4.80847">
    <ele>236</ele>
    <name><![CDATA[clansayes]]></name>
  </wpt>
  <wpt lat="44.38023" lon="4.79721">
    <ele>113.1</ele>
    <name><![CDATA[D133]]></name>
  </wpt>
  <wpt lat="44.38905" lon="4.78225">
    <ele>120.2</ele>
    <name><![CDATA[les borias]]></name>
  </wpt>
  <wpt lat="44.39466" lon="4.77598">
    <ele>156.8</ele>
    <name><![CDATA[chap. val des nymphes]]></name>
  </wpt>
  <wpt lat="44.38821" lon="4.76758">
    <ele>163.5</ele>
    <name><![CDATA[pierres à sacrifices]]></name>
  </wpt>
  <wpt lat="44.39255" lon="4.75402">
    <ele>172</ele>
    <name><![CDATA[garde adhemar]]></name>
  </wpt>
  <wpt lat="44.3717" lon="4.80614">
    <ele>243.5</ele>
    <name><![CDATA[Tour des Templiers Clansayes]]></name>
  </wpt>
  <wpt lat="44.36712" lon="4.79969">
    <ele>222.6</ele>
    <name><![CDATA[Notre dame de Toronne]]></name>
  </wpt>
  <trk>
    <name><![CDATA[OR-8118409--Saint-Paul-Trois-Châteaux:Val des Nymphes 1]]></name>
    <extensions>
      <line xmlns="http://www.topografix.com/GPX/gpx_style/0/2">
        <color>0000FF</color>
        <width>4</width>
      </line>
    </extensions>
    <trkseg>
      <trkpt lat="44.34782" lon="4.7707">
        <ele>95</ele>
        <time>2017-11-17T16:39:05Z</time>
      </trkpt>
      <trkpt lat="44.34785" lon="4.77044">
        <ele>95</ele>
        <time>2017-11-17T16:41:05Z</time>
      </trkpt>
      <trkpt lat="44.34777" lon="4.76983">
        <ele>94</ele>
        <time>2017-11-17T16:43:05Z</time>
      </trkpt>
      <trkpt lat="44.34798" lon="4.76957">
        <ele>96</ele>
        <time>2017-11-17T16:45:05Z</time>
      </trkpt>
      <trkpt lat="44.34817" lon="4.76936">
        <ele>97</ele>
        <time>2017-11-17T16:47:05Z</time>
      </trkpt>
      <trkpt lat="44.34819" lon="4.76914">
        <ele>97</ele>
        <time>2017-11-17T16:49:05Z</time>
      </trkpt>
      <trkpt lat="44.34837" lon="4.76893">
        <ele>98</ele>
        <time>2017-11-17T16:51:05Z</time>
      </trkpt>
      <trkpt lat="44.34834" lon="4.76854">
        <ele>98</ele>
        <time>2017-11-17T16:53:05Z</time>
      </trkpt>
      <trkpt lat="44.34833" lon="4.76813">
        <ele>97</ele>
        <time>2017-11-17T16:55:05Z</time>
      </trkpt>
      <trkpt lat="44.34823" lon="4.76793">
        <ele>96</ele>
        <time>2017-11-17T16:57:05Z</time>
      </trkpt>
      <trkpt lat="44.348" lon="4.76747">
        <ele>94</ele>
        <time>2017-11-17T16:59:05Z</time>
      </trkpt>
      <trkpt lat="44.3479" lon="4.76749">
        <ele>94</ele>
        <time>2017-11-17T17:01:05Z</time>
      </trkpt>
      <trkpt lat="44.34783" lon="4.76731">
        <ele>93</ele>
        <time>2017-11-17T17:03:05Z</time>
      </trkpt>
      <trkpt lat="44.34776" lon="4.76674">
        <ele>92</ele>
        <time>2017-11-17T17:05:05Z</time>
      </trkpt>
      <trkpt lat="44.348" lon="4.76678">
        <ele>93</ele>
        <time>2017-11-17T17:07:05Z</time>
      </trkpt>
      <trkpt lat="44.34824" lon="4.76685">
        <ele>93</ele>
        <time>2017-11-17T17:09:05Z</time>
      </trkpt>
      <trkpt lat="44.34852" lon="4.76704">
        <ele>93</ele>
        <time>2017-11-17T17:11:05Z</time>
      </trkpt>
      <trkpt lat="44.34869" lon="4.76715">
        <ele>93</ele>
        <time>2017-11-17T17:13:05Z</time>
      </trkpt>
      <trkpt lat="44.34874" lon="4.76749">
        <ele>94</ele>
        <time>2017-11-17T17:15:05Z</time>
      </trkpt>
      <trkpt lat="44.34891" lon="4.76764">
        <ele>95</ele>
        <time>2017-11-17T17:17:05Z</time>
      </trkpt>
      <trkpt lat="44.34931" lon="4.76766">
        <ele>94</ele>
        <time>2017-11-17T17:19:05Z</time>
      </trkpt>
      <trkpt lat="44.34933" lon="4.76744">
        <ele>93</ele>
        <time>2017-11-17T17:21:05Z</time>
      </trkpt>
      <trkpt lat="44.34948" lon="4.76726">
        <ele>92</ele>
        <time>2017-11-17T17:23:05Z</time>
      </trkpt>
      <trkpt lat="44.34968" lon="4.76752">
        <ele>92</ele>
        <time>2017-11-17T17:25:05Z</time>
      </trkpt>
      <trkpt lat="44.34973" lon="4.76774">
        <ele>92</ele>
        <time>2017-11-17T17:27:05Z</time>
      </trkpt>
      <trkpt lat="44.35021" lon="4.7677">
        <ele>90</ele>
        <time>2017-11-17T17:29:05Z</time>
      </trkpt>
      <trkpt lat="44.35029" lon="4.76901">
        <ele>92</ele>
        <time>2017-11-17T17:31:05Z</time>
      </trkpt>
      <trkpt lat="44.35093" lon="4.76899">
        <ele>86</ele>
        <time>2017-11-17T17:33:05Z</time>
      </trkpt>
      <trkpt lat="44.35073" lon="4.76983">
        <ele>88</ele>
        <time>2017-11-17T17:35:05Z</time>
      </trkpt>
      <trkpt lat="44.35067" lon="4.77071">
        <ele>88</ele>
        <time>2017-11-17T17:37:05Z</time>
      </trkpt>
      <trkpt lat="44.3507" lon="4.7713">
        <ele>87</ele>
        <time>2017-11-17T17:39:05Z</time>
      </trkpt>
      <trkpt lat="44.35044" lon="4.77132">
        <ele>88</ele>
        <time>2017-11-17T17:41:05Z</time>
      </trkpt>
      <trkpt lat="44.35024" lon="4.77163">
        <ele>88</ele>
        <time>2017-11-17T17:43:05Z</time>
      </trkpt>
      <trkpt lat="44.35001" lon="4.7722">
        <ele>88</ele>
        <time>2017-11-17T17:45:05Z</time>
      </trkpt>
      <trkpt lat="44.35014" lon="4.77234">
        <ele>88</ele>
        <time>2017-11-17T17:47:05Z</time>
      </trkpt>
      <trkpt lat="44.35041" lon="4.77409">
        <ele>90</ele>
        <time>2017-11-17T17:49:05Z</time>
      </trkpt>
      <trkpt lat="44.3505" lon="4.77429">
        <ele>90</ele>
        <time>2017-11-17T17:51:05Z</time>
      </trkpt>
      <trkpt lat="44.3502" lon="4.77513">
        <ele>91</ele>
        <time>2017-11-17T17:53:05Z</time>
      </trkpt>
      <trkpt lat="44.35021" lon="4.77562">
        <ele>92</ele>
        <time>2017-11-17T17:55:05Z</time>
      </trkpt>
      <trkpt lat="44.35017" lon="4.77678">
        <ele>94</ele>
        <time>2017-11-17T17:57:05Z</time>
      </trkpt>
      <trkpt lat="44.35007" lon="4.78004">
        <ele>91</ele>
        <time>2017-11-17T17:59:05Z</time>
      </trkpt>
      <trkpt lat="44.35034" lon="4.78266">
        <ele>101</ele>
        <time>2017-11-17T18:01:05Z</time>
      </trkpt>
      <trkpt lat="44.34984" lon="4.7836">
        <ele>100</ele>
        <time>2017-11-17T18:03:05Z</time>
      </trkpt>
      <trkpt lat="44.34886" lon="4.78541">
        <ele>100</ele>
        <time>2017-11-17T18:05:05Z</time>
      </trkpt>
      <trkpt lat="44.34837" lon="4.78614">
        <ele>99</ele>
        <time>2017-11-17T18:07:05Z</time>
      </trkpt>
      <trkpt lat="44.34705" lon="4.78725">
        <ele>99</ele>
        <time>2017-11-17T18:09:05Z</time>
      </trkpt>
      <trkpt lat="44.34627" lon="4.78957">
        <ele>101</ele>
        <time>2017-11-17T18:11:05Z</time>
      </trkpt>
      <trkpt lat="44.34437" lon="4.78895">
        <ele>98</ele>
        <time>2017-11-17T18:13:05Z</time>
      </trkpt>
      <trkpt lat="44.34297" lon="4.78944">
        <ele>102</ele>
        <time>2017-11-17T18:15:05Z</time>
      </trkpt>
      <trkpt lat="44.342" lon="4.7903">
        <ele>102</ele>
        <time>2017-11-17T18:17:05Z</time>
      </trkpt>
      <trkpt lat="44.34236" lon="4.79071">
        <ele>104</ele>
        <time>2017-11-17T18:19:05Z</time>
      </trkpt>
      <trkpt lat="44.34311" lon="4.79077">
        <ele>111</ele>
        <time>2017-11-17T18:21:05Z</time>
      </trkpt>
      <trkpt lat="44.3438" lon="4.79139">
        <ele>120</ele>
        <time>2017-11-17T18:23:05Z</time>
      </trkpt>
      <trkpt lat="44.3446" lon="4.79165">
        <ele>126</ele>
        <time>2017-11-17T18:25:05Z</time>
      </trkpt>
      <trkpt lat="44.34487" lon="4.79193">
        <ele>131</ele>
        <time>2017-11-17T18:27:05Z</time>
      </trkpt>
      <trkpt lat="44.34434" lon="4.79313">
        <ele>144</ele>
        <time>2017-11-17T18:29:05Z</time>
      </trkpt>
      <trkpt lat="44.3444" lon="4.79369">
        <ele>147</ele>
        <time>2017-11-17T18:31:05Z</time>
      </trkpt>
      <trkpt lat="44.34449" lon="4.79457">
        <ele>148</ele>
        <time>2017-11-17T18:33:05Z</time>
      </trkpt>
      <trkpt lat="44.34437" lon="4.79496">
        <ele>143</ele>
        <time>2017-11-17T18:35:05Z</time>
      </trkpt>
      <trkpt lat="44.34448" lon="4.79572">
        <ele>145</ele>
        <time>2017-11-17T18:37:05Z</time>
      </trkpt>
      <trkpt lat="44.34495" lon="4.79638">
        <ele>152</ele>
        <time>2017-11-17T18:39:05Z</time>
      </trkpt>
      <trkpt lat="44.34525" lon="4.79659">
        <ele>159</ele>
        <time>2017-11-17T18:41:05Z</time>
      </trkpt>
      <trkpt lat="44.3454" lon="4.79584">
        <ele>171</ele>
        <time>2017-11-17T18:43:05Z</time>
      </trkpt>
      <trkpt lat="44.34548" lon="4.79482">
        <ele>169</ele>
        <time>2017-11-17T18:45:05Z</time>
      </trkpt>
      <trkpt lat="44.34562" lon="4.79467">
        <ele>170</ele>
        <time>2017-11-17T18:47:05Z</time>
      </trkpt>
      <trkpt lat="44.34572" lon="4.79483">
        <ele>173</ele>
        <time>2017-11-17T18:49:05Z</time>
      </trkpt>
      <trkpt lat="44.34596" lon="4.79501">
        <ele>174</ele>
        <time>2017-11-17T18:51:05Z</time>
      </trkpt>
      <trkpt lat="44.34611" lon="4.79544">
        <ele>178</ele>
        <time>2017-11-17T18:53:05Z</time>
      </trkpt>
      <trkpt lat="44.34609" lon="4.79587">
        <ele>185</ele>
        <time>2017-11-17T18:55:05Z</time>
      </trkpt>
      <trkpt lat="44.34618" lon="4.79618">
        <ele>184</ele>
        <time>2017-11-17T18:57:05Z</time>
      </trkpt>
      <trkpt lat="44.34639" lon="4.79617">
        <ele>186</ele>
        <time>2017-11-17T18:59:05Z</time>
      </trkpt>
      <trkpt lat="44.34681" lon="4.79689">
        <ele>187</ele>
        <time>2017-11-17T19:01:05Z</time>
      </trkpt>
      <trkpt lat="44.34724" lon="4.79708">
        <ele>183</ele>
        <time>2017-11-17T19:03:05Z</time>
      </trkpt>
      <trkpt lat="44.34753" lon="4.79747">
        <ele>185</ele>
        <time>2017-11-17T19:05:05Z</time>
      </trkpt>
      <trkpt lat="44.34815" lon="4.7975">
        <ele>182</ele>
        <time>2017-11-17T19:07:05Z</time>
      </trkpt>
      <trkpt lat="44.34839" lon="4.79782">
        <ele>178</ele>
        <time>2017-11-17T19:09:05Z</time>
      </trkpt>
      <trkpt lat="44.34842" lon="4.79823">
        <ele>174</ele>
        <time>2017-11-17T19:11:05Z</time>
      </trkpt>
      <trkpt lat="44.34856" lon="4.79829">
        <ele>173</ele>
        <time>2017-11-17T19:13:05Z</time>
      </trkpt>
      <trkpt lat="44.34896" lon="4.79824">
        <ele>173</ele>
        <time>2017-11-17T19:15:05Z</time>
      </trkpt>
      <trkpt lat="44.34928" lon="4.79845">
        <ele>170</ele>
        <time>2017-11-17T19:17:05Z</time>
      </trkpt>
      <trkpt lat="44.34974" lon="4.79858">
        <ele>168</ele>
        <time>2017-11-17T19:19:05Z</time>
      </trkpt>
      <trkpt lat="44.34989" lon="4.79889">
        <ele>166</ele>
        <time>2017-11-17T19:21:05Z</time>
      </trkpt>
      <trkpt lat="44.35009" lon="4.79893">
        <ele>167</ele>
        <time>2017-11-17T19:23:05Z</time>
      </trkpt>
      <trkpt lat="44.35026" lon="4.79912">
        <ele>168</ele>
        <time>2017-11-17T19:25:05Z</time>
      </trkpt>
      <trkpt lat="44.35039" lon="4.79918">
        <ele>170</ele>
        <time>2017-11-17T19:27:05Z</time>
      </trkpt>
      <trkpt lat="44.35051" lon="4.79931">
        <ele>170</ele>
        <time>2017-11-17T19:29:05Z</time>
      </trkpt>
      <trkpt lat="44.35076" lon="4.79935">
        <ele>173</ele>
        <time>2017-11-17T19:31:05Z</time>
      </trkpt>
      <trkpt lat="44.35092" lon="4.79952">
        <ele>173</ele>
        <time>2017-11-17T19:33:05Z</time>
      </trkpt>
      <trkpt lat="44.35112" lon="4.79964">
        <ele>173</ele>
        <time>2017-11-17T19:35:05Z</time>
      </trkpt>
      <trkpt lat="44.35119" lon="4.7997">
        <ele>173</ele>
        <time>2017-11-17T19:37:05Z</time>
      </trkpt>
      <trkpt lat="44.35129" lon="4.79968">
        <ele>173</ele>
        <time>2017-11-17T19:39:05Z</time>
      </trkpt>
      <trkpt lat="44.35151" lon="4.79974">
        <ele>174</ele>
        <time>2017-11-17T19:41:05Z</time>
      </trkpt>
      <trkpt lat="44.35167" lon="4.7997">
        <ele>174</ele>
        <time>2017-11-17T19:43:05Z</time>
      </trkpt>
      <trkpt lat="44.35179" lon="4.79971">
        <ele>174</ele>
        <time>2017-11-17T19:45:05Z</time>
      </trkpt>
      <trkpt lat="44.3519" lon="4.79965">
        <ele>174</ele>
        <time>2017-11-17T19:47:05Z</time>
      </trkpt>
      <trkpt lat="44.35206" lon="4.79985">
        <ele>175</ele>
        <time>2017-11-17T19:49:05Z</time>
      </trkpt>
      <trkpt lat="44.35216" lon="4.7999">
        <ele>175</ele>
        <time>2017-11-17T19:51:05Z</time>
      </trkpt>
      <trkpt lat="44.35234" lon="4.79982">
        <ele>175</ele>
        <time>2017-11-17T19:53:05Z</time>
      </trkpt>
      <trkpt lat="44.3525" lon="4.79989">
        <ele>176</ele>
        <time>2017-11-17T19:55:05Z</time>
      </trkpt>
      <trkpt lat="44.35266" lon="4.7999">
        <ele>176</ele>
        <time>2017-11-17T19:57:05Z</time>
      </trkpt>
      <trkpt lat="44.35291" lon="4.80011">
        <ele>177</ele>
        <time>2017-11-17T19:59:05Z</time>
      </trkpt>
      <trkpt lat="44.3532" lon="4.8001">
        <ele>177</ele>
        <time>2017-11-17T20:01:05Z</time>
      </trkpt>
      <trkpt lat="44.3532" lon="4.80023">
        <ele>177</ele>
        <time>2017-11-17T20:03:05Z</time>
      </trkpt>
      <trkpt lat="44.35327" lon="4.80034">
        <ele>177</ele>
        <time>2017-11-17T20:05:05Z</time>
      </trkpt>
      <trkpt lat="44.35347" lon="4.80036">
        <ele>179</ele>
        <time>2017-11-17T20:07:05Z</time>
      </trkpt>
      <trkpt lat="44.35353" lon="4.80051">
        <ele>179</ele>
        <time>2017-11-17T20:09:05Z</time>
      </trkpt>
      <trkpt lat="44.35395" lon="4.80061">
        <ele>183</ele>
        <time>2017-11-17T20:11:05Z</time>
      </trkpt>
      <trkpt lat="44.35408" lon="4.80091">
        <ele>182</ele>
        <time>2017-11-17T20:13:05Z</time>
      </trkpt>
      <trkpt lat="44.35419" lon="4.8013">
        <ele>182</ele>
        <time>2017-11-17T20:15:05Z</time>
      </trkpt>
      <trkpt lat="44.35428" lon="4.80147">
        <ele>182</ele>
        <time>2017-11-17T20:17:05Z</time>
      </trkpt>
      <trkpt lat="44.35447" lon="4.80168">
        <ele>184</ele>
        <time>2017-11-17T20:19:05Z</time>
      </trkpt>
      <trkpt lat="44.35459" lon="4.80194">
        <ele>184</ele>
        <time>2017-11-17T20:21:05Z</time>
      </trkpt>
      <trkpt lat="44.35475" lon="4.80206">
        <ele>186</ele>
        <time>2017-11-17T20:23:05Z</time>
      </trkpt>
      <trkpt lat="44.35481" lon="4.80234">
        <ele>184</ele>
        <time>2017-11-17T20:25:05Z</time>
      </trkpt>
      <trkpt lat="44.35503" lon="4.80254">
        <ele>186</ele>
        <time>2017-11-17T20:27:05Z</time>
      </trkpt>
      <trkpt lat="44.35529" lon="4.8031">
        <ele>187</ele>
        <time>2017-11-17T20:29:05Z</time>
      </trkpt>
      <trkpt lat="44.35535" lon="4.80341">
        <ele>186</ele>
        <time>2017-11-17T20:31:05Z</time>
      </trkpt>
      <trkpt lat="44.35542" lon="4.80368">
        <ele>188</ele>
        <time>2017-11-17T20:33:05Z</time>
      </trkpt>
      <trkpt lat="44.35561" lon="4.80411">
        <ele>190</ele>
        <time>2017-11-17T20:35:05Z</time>
      </trkpt>
      <trkpt lat="44.3558" lon="4.80433">
        <ele>191</ele>
        <time>2017-11-17T20:37:05Z</time>
      </trkpt>
      <trkpt lat="44.35614" lon="4.80503">
        <ele>193</ele>
        <time>2017-11-17T20:39:05Z</time>
      </trkpt>
      <trkpt lat="44.35618" lon="4.80551">
        <ele>195</ele>
        <time>2017-11-17T20:41:05Z</time>
      </trkpt>
      <trkpt lat="44.35633" lon="4.80581">
        <ele>196</ele>
        <time>2017-11-17T20:43:05Z</time>
      </trkpt>
      <trkpt lat="44.3564" lon="4.80612">
        <ele>197</ele>
        <time>2017-11-17T20:45:05Z</time>
      </trkpt>
      <trkpt lat="44.35646" lon="4.80629">
        <ele>198</ele>
        <time>2017-11-17T20:47:05Z</time>
      </trkpt>
      <trkpt lat="44.35712" lon="4.80589">
        <ele>201</ele>
        <time>2017-11-17T20:49:05Z</time>
      </trkpt>
      <trkpt lat="44.35785" lon="4.80555">
        <ele>198</ele>
        <time>2017-11-17T20:51:05Z</time>
      </trkpt>
      <trkpt lat="44.35845" lon="4.80526">
        <ele>189</ele>
        <time>2017-11-17T20:53:05Z</time>
      </trkpt>
      <trkpt lat="44.35857" lon="4.80486">
        <ele>186</ele>
        <time>2017-11-17T20:55:05Z</time>
      </trkpt>
      <trkpt lat="44.3588" lon="4.80468">
        <ele>183</ele>
        <time>2017-11-17T20:57:05Z</time>
      </trkpt>
      <trkpt lat="44.35924" lon="4.80454">
        <ele>178</ele>
        <time>2017-11-17T20:59:05Z</time>
      </trkpt>
      <trkpt lat="44.35933" lon="4.80425">
        <ele>176</ele>
        <time>2017-11-17T21:01:05Z</time>
      </trkpt>
      <trkpt lat="44.3595" lon="4.80408">
        <ele>177</ele>
        <time>2017-11-17T21:03:05Z</time>
      </trkpt>
      <trkpt lat="44.35975" lon="4.80391">
        <ele>177</ele>
        <time>2017-11-17T21:05:05Z</time>
      </trkpt>
      <trkpt lat="44.35992" lon="4.80337">
        <ele>171</ele>
        <time>2017-11-17T21:07:05Z</time>
      </trkpt>
      <trkpt lat="44.36026" lon="4.80255">
        <ele>164</ele>
        <time>2017-11-17T21:09:05Z</time>
      </trkpt>
      <trkpt lat="44.36056" lon="4.80203">
        <ele>160</ele>
        <time>2017-11-17T21:11:05Z</time>
      </trkpt>
      <trkpt lat="44.36082" lon="4.80175">
        <ele>155</ele>
        <time>2017-11-17T21:13:05Z</time>
      </trkpt>
      <trkpt lat="44.361" lon="4.80139">
        <ele>151</ele>
        <time>2017-11-17T21:15:05Z</time>
      </trkpt>
      <trkpt lat="44.3614" lon="4.80034">
        <ele>152</ele>
        <time>2017-11-17T21:17:05Z</time>
      </trkpt>
      <trkpt lat="44.36262" lon="4.80006">
        <ele>157</ele>
        <time>2017-11-17T21:19:05Z</time>
      </trkpt>
      <trkpt lat="44.36348" lon="4.80003">
        <ele>158</ele>
        <time>2017-11-17T21:21:05Z</time>
      </trkpt>
      <trkpt lat="44.36414" lon="4.80094">
        <ele>157</ele>
        <time>2017-11-17T21:23:05Z</time>
      </trkpt>
      <trkpt lat="44.36554" lon="4.80223">
        <ele>157</ele>
        <time>2017-11-17T21:25:05Z</time>
      </trkpt>
      <trkpt lat="44.36661" lon="4.80262">
        <ele>161</ele>
        <time>2017-11-17T21:27:05Z</time>
      </trkpt>
      <trkpt lat="44.36671" lon="4.80208">
        <ele>170</ele>
        <time>2017-11-17T21:29:05Z</time>
      </trkpt>
      <trkpt lat="44.36617" lon="4.80155">
        <ele>175</ele>
        <time>2017-11-17T21:31:05Z</time>
      </trkpt>
      <trkpt lat="44.36591" lon="4.80051">
        <ele>199</ele>
        <time>2017-11-17T21:33:05Z</time>
      </trkpt>
      <trkpt lat="44.36611" lon="4.80061">
        <ele>200</ele>
        <time>2017-11-17T21:35:05Z</time>
      </trkpt>
      <trkpt lat="44.36609" lon="4.80038">
        <ele>205</ele>
        <time>2017-11-17T21:37:05Z</time>
      </trkpt>
      <trkpt lat="44.36621" lon="4.80045">
        <ele>206</ele>
        <time>2017-11-17T21:39:05Z</time>
      </trkpt>
      <trkpt lat="44.36611" lon="4.79981">
        <ele>216</ele>
        <time>2017-11-17T21:41:05Z</time>
      </trkpt>
      <trkpt lat="44.36651" lon="4.80004">
        <ele>221</ele>
        <time>2017-11-17T21:43:05Z</time>
      </trkpt>
      <trkpt lat="44.36692" lon="4.79972">
        <ele>212</ele>
        <time>2017-11-17T21:45:05Z</time>
      </trkpt>
      <trkpt lat="44.36711" lon="4.79987">
        <ele>208</ele>
        <time>2017-11-17T21:47:05Z</time>
      </trkpt>
      <trkpt lat="44.3669" lon="4.79971">
        <ele>213</ele>
        <time>2017-11-17T21:49:05Z</time>
      </trkpt>
      <trkpt lat="44.36654" lon="4.80004">
        <ele>222</ele>
        <time>2017-11-17T21:51:05Z</time>
      </trkpt>
      <trkpt lat="44.3661" lon="4.79981">
        <ele>215</ele>
        <time>2017-11-17T21:53:05Z</time>
      </trkpt>
      <trkpt lat="44.36625" lon="4.80045">
        <ele>206</ele>
        <time>2017-11-17T21:55:05Z</time>
      </trkpt>
      <trkpt lat="44.36611" lon="4.80036">
        <ele>206</ele>
        <time>2017-11-17T21:57:05Z</time>
      </trkpt>
      <trkpt lat="44.36611" lon="4.80063">
        <ele>199</ele>
        <time>2017-11-17T21:59:05Z</time>
      </trkpt>
      <trkpt lat="44.36593" lon="4.80049">
        <ele>200</ele>
        <time>2017-11-17T22:01:05Z</time>
      </trkpt>
      <trkpt lat="44.36618" lon="4.80155">
        <ele>175</ele>
        <time>2017-11-17T22:03:05Z</time>
      </trkpt>
      <trkpt lat="44.36669" lon="4.80206">
        <ele>170</ele>
        <time>2017-11-17T22:05:05Z</time>
      </trkpt>
      <trkpt lat="44.3666" lon="4.80265">
        <ele>161</ele>
        <time>2017-11-17T22:07:05Z</time>
      </trkpt>
      <trkpt lat="44.36667" lon="4.80278">
        <ele>161</ele>
        <time>2017-11-17T22:09:05Z</time>
      </trkpt>
      <trkpt lat="44.36669" lon="4.80313">
        <ele>159</ele>
        <time>2017-11-17T22:11:05Z</time>
      </trkpt>
      <trkpt lat="44.36712" lon="4.80453">
        <ele>168</ele>
        <time>2017-11-17T22:13:05Z</time>
      </trkpt>
      <trkpt lat="44.36706" lon="4.8052">
        <ele>169</ele>
        <time>2017-11-17T22:15:05Z</time>
      </trkpt>
      <trkpt lat="44.36709" lon="4.80639">
        <ele>170</ele>
        <time>2017-11-17T22:17:05Z</time>
      </trkpt>
      <trkpt lat="44.36703" lon="4.80667">
        <ele>168</ele>
        <time>2017-11-17T22:19:05Z</time>
      </trkpt>
      <trkpt lat="44.36681" lon="4.80691">
        <ele>163</ele>
        <time>2017-11-17T22:21:05Z</time>
      </trkpt>
      <trkpt lat="44.36655" lon="4.80696">
        <ele>161</ele>
        <time>2017-11-17T22:23:05Z</time>
      </trkpt>
      <trkpt lat="44.36608" lon="4.80764">
        <ele>162</ele>
        <time>2017-11-17T22:25:05Z</time>
      </trkpt>
      <trkpt lat="44.36582" lon="4.808">
        <ele>164</ele>
        <time>2017-11-17T22:27:05Z</time>
      </trkpt>
      <trkpt lat="44.36606" lon="4.80861">
        <ele>167</ele>
        <time>2017-11-17T22:29:05Z</time>
      </trkpt>
      <trkpt lat="44.36631" lon="4.80916">
        <ele>168</ele>
        <time>2017-11-17T22:31:05Z</time>
      </trkpt>
      <trkpt lat="44.36651" lon="4.80982">
        <ele>170</ele>
        <time>2017-11-17T22:33:05Z</time>
      </trkpt>
      <trkpt lat="44.36697" lon="4.81061">
        <ele>173</ele>
        <time>2017-11-17T22:35:05Z</time>
      </trkpt>
      <trkpt lat="44.3671" lon="4.81087">
        <ele>174</ele>
        <time>2017-11-17T22:37:05Z</time>
      </trkpt>
      <trkpt lat="44.36696" lon="4.81119">
        <ele>180</ele>
        <time>2017-11-17T22:39:05Z</time>
      </trkpt>
      <trkpt lat="44.3673" lon="4.81178">
        <ele>183</ele>
        <time>2017-11-17T22:41:05Z</time>
      </trkpt>
      <trkpt lat="44.36772" lon="4.81263">
        <ele>190</ele>
        <time>2017-11-17T22:43:05Z</time>
      </trkpt>
      <trkpt lat="44.3679" lon="4.81279">
        <ele>190</ele>
        <time>2017-11-17T22:45:05Z</time>
      </trkpt>
      <trkpt lat="44.36834" lon="4.81294">
        <ele>187</ele>
        <time>2017-11-17T22:47:05Z</time>
      </trkpt>
      <trkpt lat="44.36893" lon="4.81307">
        <ele>187</ele>
        <time>2017-11-17T22:49:05Z</time>
      </trkpt>
      <trkpt lat="44.36926" lon="4.81321">
        <ele>189</ele>
        <time>2017-11-17T22:51:05Z</time>
      </trkpt>
      <trkpt lat="44.36936" lon="4.81294">
        <ele>188</ele>
        <time>2017-11-17T22:53:05Z</time>
      </trkpt>
      <trkpt lat="44.36937" lon="4.81251">
        <ele>186</ele>
        <time>2017-11-17T22:55:05Z</time>
      </trkpt>
      <trkpt lat="44.36981" lon="4.81239">
        <ele>194</ele>
        <time>2017-11-17T22:57:05Z</time>
      </trkpt>
      <trkpt lat="44.37006" lon="4.81224">
        <ele>200</ele>
        <time>2017-11-17T22:59:05Z</time>
      </trkpt>
      <trkpt lat="44.37019" lon="4.81215">
        <ele>205</ele>
        <time>2017-11-17T23:01:05Z</time>
      </trkpt>
      <trkpt lat="44.37019" lon="4.81196">
        <ele>206</ele>
        <time>2017-11-17T23:03:05Z</time>
      </trkpt>
      <trkpt lat="44.37054" lon="4.81152">
        <ele>217</ele>
        <time>2017-11-17T23:05:05Z</time>
      </trkpt>
      <trkpt lat="44.371" lon="4.81105">
        <ele>223</ele>
        <time>2017-11-17T23:07:05Z</time>
      </trkpt>
      <trkpt lat="44.37131" lon="4.81059">
        <ele>225</ele>
        <time>2017-11-17T23:09:05Z</time>
      </trkpt>
      <trkpt lat="44.37128" lon="4.81">
        <ele>220</ele>
        <time>2017-11-17T23:11:05Z</time>
      </trkpt>
      <trkpt lat="44.37125" lon="4.80951">
        <ele>222</ele>
        <time>2017-11-17T23:13:05Z</time>
      </trkpt>
      <trkpt lat="44.37108" lon="4.80915">
        <ele>222</ele>
        <time>2017-11-17T23:15:05Z</time>
      </trkpt>
      <trkpt lat="44.37115" lon="4.8088">
        <ele>227</ele>
        <time>2017-11-17T23:17:05Z</time>
      </trkpt>
      <trkpt lat="44.37148" lon="4.80864">
        <ele>234</ele>
        <time>2017-11-17T23:19:05Z</time>
      </trkpt>
      <trkpt lat="44.37204" lon="4.8087">
        <ele>238</ele>
        <time>2017-11-17T23:21:05Z</time>
      </trkpt>
      <trkpt lat="44.37215" lon="4.80821">
        <ele>238</ele>
        <time>2017-11-17T23:23:05Z</time>
      </trkpt>
      <trkpt lat="44.37207" lon="4.80808">
        <ele>239</ele>
        <time>2017-11-17T23:25:05Z</time>
      </trkpt>
      <trkpt lat="44.37183" lon="4.80813">
        <ele>241</ele>
        <time>2017-11-17T23:27:05Z</time>
      </trkpt>
      <trkpt lat="44.37152" lon="4.80814">
        <ele>239</ele>
        <time>2017-11-17T23:29:05Z</time>
      </trkpt>
      <trkpt lat="44.37139" lon="4.80804">
        <ele>238</ele>
        <time>2017-11-17T23:31:05Z</time>
      </trkpt>
      <trkpt lat="44.37148" lon="4.80784">
        <ele>241</ele>
        <time>2017-11-17T23:33:05Z</time>
      </trkpt>
      <trkpt lat="44.37153" lon="4.80756">
        <ele>245</ele>
        <time>2017-11-17T23:35:05Z</time>
      </trkpt>
      <trkpt lat="44.37158" lon="4.80735">
        <ele>246</ele>
        <time>2017-11-17T23:37:05Z</time>
      </trkpt>
      <trkpt lat="44.37161" lon="4.80711">
        <ele>246</ele>
        <time>2017-11-17T23:39:05Z</time>
      </trkpt>
      <trkpt lat="44.37176" lon="4.8069">
        <ele>244</ele>
        <time>2017-11-17T23:41:05Z</time>
      </trkpt>
      <trkpt lat="44.37179" lon="4.80664">
        <ele>242</ele>
        <time>2017-11-17T23:43:05Z</time>
      </trkpt>
      <trkpt lat="44.37159" lon="4.80629">
        <ele>237</ele>
        <time>2017-11-17T23:45:05Z</time>
      </trkpt>
      <trkpt lat="44.37178" lon="4.80664">
        <ele>242</ele>
        <time>2017-11-17T23:47:05Z</time>
      </trkpt>
      <trkpt lat="44.37176" lon="4.8069">
        <ele>244</ele>
        <time>2017-11-17T23:49:05Z</time>
      </trkpt>
      <trkpt lat="44.37162" lon="4.8071">
        <ele>247</ele>
        <time>2017-11-17T23:51:05Z</time>
      </trkpt>
      <trkpt lat="44.37158" lon="4.80736">
        <ele>246</ele>
        <time>2017-11-17T23:53:05Z</time>
      </trkpt>
      <trkpt lat="44.37152" lon="4.80757">
        <ele>244</ele>
        <time>2017-11-17T23:55:05Z</time>
      </trkpt>
      <trkpt lat="44.37148" lon="4.80784">
        <ele>241</ele>
        <time>2017-11-17T23:57:05Z</time>
      </trkpt>
      <trkpt lat="44.37142" lon="4.80805">
        <ele>238</ele>
        <time>2017-11-17T23:59:05Z</time>
      </trkpt>
      <trkpt lat="44.37157" lon="4.80814">
        <ele>240</ele>
        <time>2017-11-18T00:01:05Z</time>
      </trkpt>
      <trkpt lat="44.37184" lon="4.80813">
        <ele>241</ele>
        <time>2017-11-18T00:03:05Z</time>
      </trkpt>
      <trkpt lat="44.37206" lon="4.80807">
        <ele>239</ele>
        <time>2017-11-18T00:05:05Z</time>
      </trkpt>
      <trkpt lat="44.37214" lon="4.80823">
        <ele>239</ele>
        <time>2017-11-18T00:07:05Z</time>
      </trkpt>
      <trkpt lat="44.37248" lon="4.80812">
        <ele>236</ele>
        <time>2017-11-18T00:09:05Z</time>
      </trkpt>
      <trkpt lat="44.37266" lon="4.80822">
        <ele>233</ele>
        <time>2017-11-18T00:11:05Z</time>
      </trkpt>
      <trkpt lat="44.37273" lon="4.80827">
        <ele>232</ele>
        <time>2017-11-18T00:13:05Z</time>
      </trkpt>
      <trkpt lat="44.37285" lon="4.80823">
        <ele>229</ele>
        <time>2017-11-18T00:15:05Z</time>
      </trkpt>
      <trkpt lat="44.37328" lon="4.80838">
        <ele>224</ele>
        <time>2017-11-18T00:17:05Z</time>
      </trkpt>
      <trkpt lat="44.37371" lon="4.80891">
        <ele>226</ele>
        <time>2017-11-18T00:19:05Z</time>
      </trkpt>
      <trkpt lat="44.3741" lon="4.80895">
        <ele>216</ele>
        <time>2017-11-18T00:21:05Z</time>
      </trkpt>
      <trkpt lat="44.37432" lon="4.80887">
        <ele>207</ele>
        <time>2017-11-18T00:23:05Z</time>
      </trkpt>
      <trkpt lat="44.37447" lon="4.80862">
        <ele>196</ele>
        <time>2017-11-18T00:25:05Z</time>
      </trkpt>
      <trkpt lat="44.37453" lon="4.80869">
        <ele>197</ele>
        <time>2017-11-18T00:27:05Z</time>
      </trkpt>
      <trkpt lat="44.37479" lon="4.80866">
        <ele>189</ele>
        <time>2017-11-18T00:29:05Z</time>
      </trkpt>
      <trkpt lat="44.37497" lon="4.80816">
        <ele>173</ele>
        <time>2017-11-18T00:31:05Z</time>
      </trkpt>
      <trkpt lat="44.37511" lon="4.80797">
        <ele>167</ele>
        <time>2017-11-18T00:33:05Z</time>
      </trkpt>
      <trkpt lat="44.37551" lon="4.8076">
        <ele>154</ele>
        <time>2017-11-18T00:35:05Z</time>
      </trkpt>
      <trkpt lat="44.37586" lon="4.80727">
        <ele>146</ele>
        <time>2017-11-18T00:37:05Z</time>
      </trkpt>
      <trkpt lat="44.37585" lon="4.80681">
        <ele>143</ele>
        <time>2017-11-18T00:39:05Z</time>
      </trkpt>
      <trkpt lat="44.37598" lon="4.80633">
        <ele>142</ele>
        <time>2017-11-18T00:41:05Z</time>
      </trkpt>
      <trkpt lat="44.37595" lon="4.80588">
        <ele>140</ele>
        <time>2017-11-18T00:43:05Z</time>
      </trkpt>
      <trkpt lat="44.37602" lon="4.80538">
        <ele>140</ele>
        <time>2017-11-18T00:45:05Z</time>
      </trkpt>
      <trkpt lat="44.37602" lon="4.80497">
        <ele>141</ele>
        <time>2017-11-18T00:47:05Z</time>
      </trkpt>
      <trkpt lat="44.37592" lon="4.80464">
        <ele>141</ele>
        <time>2017-11-18T00:49:05Z</time>
      </trkpt>
      <trkpt lat="44.3757" lon="4.8043">
        <ele>140</ele>
        <time>2017-11-18T00:51:05Z</time>
      </trkpt>
      <trkpt lat="44.37541" lon="4.80399">
        <ele>139</ele>
        <time>2017-11-18T00:53:05Z</time>
      </trkpt>
      <trkpt lat="44.37512" lon="4.80365">
        <ele>138</ele>
        <time>2017-11-18T00:55:05Z</time>
      </trkpt>
      <trkpt lat="44.375" lon="4.80294">
        <ele>138</ele>
        <time>2017-11-18T00:57:05Z</time>
      </trkpt>
      <trkpt lat="44.37542" lon="4.8025">
        <ele>148</ele>
        <time>2017-11-18T00:59:05Z</time>
      </trkpt>
      <trkpt lat="44.3755" lon="4.80217">
        <ele>149</ele>
        <time>2017-11-18T01:01:05Z</time>
      </trkpt>
      <trkpt lat="44.37593" lon="4.80197">
        <ele>155</ele>
        <time>2017-11-18T01:03:05Z</time>
      </trkpt>
      <trkpt lat="44.37597" lon="4.80174">
        <ele>153</ele>
        <time>2017-11-18T01:05:05Z</time>
      </trkpt>
      <trkpt lat="44.37624" lon="4.80154">
        <ele>155</ele>
        <time>2017-11-18T01:07:05Z</time>
      </trkpt>
      <trkpt lat="44.37652" lon="4.80182">
        <ele>163</ele>
        <time>2017-11-18T01:09:05Z</time>
      </trkpt>
      <trkpt lat="44.37674" lon="4.80184">
        <ele>166</ele>
        <time>2017-11-18T01:11:05Z</time>
      </trkpt>
      <trkpt lat="44.37698" lon="4.80158">
        <ele>165</ele>
        <time>2017-11-18T01:13:05Z</time>
      </trkpt>
      <trkpt lat="44.37697" lon="4.80117">
        <ele>158</ele>
        <time>2017-11-18T01:15:05Z</time>
      </trkpt>
      <trkpt lat="44.37723" lon="4.80069">
        <ele>153</ele>
        <time>2017-11-18T01:17:05Z</time>
      </trkpt>
      <trkpt lat="44.37807" lon="4.80104">
        <ele>159</ele>
        <time>2017-11-18T01:19:05Z</time>
      </trkpt>
      <trkpt lat="44.37819" lon="4.80131">
        <ele>163</ele>
        <time>2017-11-18T01:21:05Z</time>
      </trkpt>
      <trkpt lat="44.37834" lon="4.80132">
        <ele>162</ele>
        <time>2017-11-18T01:23:05Z</time>
      </trkpt>
      <trkpt lat="44.37845" lon="4.80166">
        <ele>168</ele>
        <time>2017-11-18T01:25:05Z</time>
      </trkpt>
      <trkpt lat="44.37865" lon="4.80183">
        <ele>167</ele>
        <time>2017-11-18T01:27:05Z</time>
      </trkpt>
      <trkpt lat="44.37884" lon="4.80191">
        <ele>166</ele>
        <time>2017-11-18T01:29:05Z</time>
      </trkpt>
      <trkpt lat="44.379" lon="4.8022">
        <ele>167</ele>
        <time>2017-11-18T01:31:05Z</time>
      </trkpt>
      <trkpt lat="44.3789" lon="4.80264">
        <ele>170</ele>
        <time>2017-11-18T01:33:05Z</time>
      </trkpt>
      <trkpt lat="44.37904" lon="4.80273">
        <ele>169</ele>
        <time>2017-11-18T01:35:05Z</time>
      </trkpt>
      <trkpt lat="44.37938" lon="4.80249">
        <ele>171</ele>
        <time>2017-11-18T01:37:05Z</time>
      </trkpt>
      <trkpt lat="44.37947" lon="4.8022">
        <ele>168</ele>
        <time>2017-11-18T01:39:05Z</time>
      </trkpt>
      <trkpt lat="44.3797" lon="4.80193">
        <ele>165</ele>
        <time>2017-11-18T01:41:05Z</time>
      </trkpt>
      <trkpt lat="44.37967" lon="4.80165">
        <ele>161</ele>
        <time>2017-11-18T01:43:05Z</time>
      </trkpt>
      <trkpt lat="44.37966" lon="4.80123">
        <ele>153</ele>
        <time>2017-11-18T01:45:05Z</time>
      </trkpt>
      <trkpt lat="44.38042" lon="4.80119">
        <ele>155</ele>
        <time>2017-11-18T01:47:05Z</time>
      </trkpt>
      <trkpt lat="44.38079" lon="4.80101">
        <ele>153</ele>
        <time>2017-11-18T01:49:05Z</time>
      </trkpt>
      <trkpt lat="44.38097" lon="4.8006">
        <ele>145</ele>
        <time>2017-11-18T01:51:05Z</time>
      </trkpt>
      <trkpt lat="44.38134" lon="4.80017">
        <ele>138</ele>
        <time>2017-11-18T01:53:05Z</time>
      </trkpt>
      <trkpt lat="44.38127" lon="4.80011">
        <ele>137</ele>
        <time>2017-11-18T01:55:05Z</time>
      </trkpt>
      <trkpt lat="44.38077" lon="4.80015">
        <ele>137</ele>
        <time>2017-11-18T01:57:05Z</time>
      </trkpt>
      <trkpt lat="44.38005" lon="4.80016">
        <ele>134</ele>
        <time>2017-11-18T01:59:05Z</time>
      </trkpt>
      <trkpt lat="44.38027" lon="4.79909">
        <ele>124</ele>
        <time>2017-11-18T02:01:05Z</time>
      </trkpt>
      <trkpt lat="44.38036" lon="4.79757">
        <ele>114</ele>
        <time>2017-11-18T02:03:05Z</time>
      </trkpt>
      <trkpt lat="44.37966" lon="4.79734">
        <ele>114</ele>
        <time>2017-11-18T02:05:05Z</time>
      </trkpt>
      <trkpt lat="44.37967" lon="4.79706">
        <ele>113</ele>
        <time>2017-11-18T02:07:05Z</time>
      </trkpt>
      <trkpt lat="44.38001" lon="4.79631">
        <ele>109</ele>
        <time>2017-11-18T02:09:05Z</time>
      </trkpt>
      <trkpt lat="44.3803" lon="4.7955">
        <ele>107</ele>
        <time>2017-11-18T02:11:05Z</time>
      </trkpt>
      <trkpt lat="44.38023" lon="4.79535">
        <ele>106</ele>
        <time>2017-11-18T02:13:05Z</time>
      </trkpt>
      <trkpt lat="44.38069" lon="4.79377">
        <ele>100</ele>
        <time>2017-11-18T02:15:05Z</time>
      </trkpt>
      <trkpt lat="44.38123" lon="4.79208">
        <ele>99</ele>
        <time>2017-11-18T02:17:05Z</time>
      </trkpt>
      <trkpt lat="44.38107" lon="4.7909">
        <ele>98</ele>
        <time>2017-11-18T02:19:05Z</time>
      </trkpt>
      <trkpt lat="44.38122" lon="4.791">
        <ele>98</ele>
        <time>2017-11-18T02:21:05Z</time>
      </trkpt>
      <trkpt lat="44.38129" lon="4.79084">
        <ele>97</ele>
        <time>2017-11-18T02:23:05Z</time>
      </trkpt>
      <trkpt lat="44.38121" lon="4.78983">
        <ele>95</ele>
        <time>2017-11-18T02:25:05Z</time>
      </trkpt>
      <trkpt lat="44.38112" lon="4.78918">
        <ele>95</ele>
        <time>2017-11-18T02:27:05Z</time>
      </trkpt>
      <trkpt lat="44.38107" lon="4.78804">
        <ele>94</ele>
        <time>2017-11-18T02:29:05Z</time>
      </trkpt>
      <trkpt lat="44.38097" lon="4.78683">
        <ele>94</ele>
        <time>2017-11-18T02:31:05Z</time>
      </trkpt>
      <trkpt lat="44.3812" lon="4.78708">
        <ele>94</ele>
        <time>2017-11-18T02:33:05Z</time>
      </trkpt>
      <trkpt lat="44.38187" lon="4.78713">
        <ele>94</ele>
        <time>2017-11-18T02:35:05Z</time>
      </trkpt>
      <trkpt lat="44.3826" lon="4.78717">
        <ele>93</ele>
        <time>2017-11-18T02:37:05Z</time>
      </trkpt>
      <trkpt lat="44.38361" lon="4.78732">
        <ele>96</ele>
        <time>2017-11-18T02:39:05Z</time>
      </trkpt>
      <trkpt lat="44.38417" lon="4.78723">
        <ele>98</ele>
        <time>2017-11-18T02:41:05Z</time>
      </trkpt>
      <trkpt lat="44.38467" lon="4.78699">
        <ele>99</ele>
        <time>2017-11-18T02:43:05Z</time>
      </trkpt>
      <trkpt lat="44.38512" lon="4.78668">
        <ele>99</ele>
        <time>2017-11-18T02:45:05Z</time>
      </trkpt>
      <trkpt lat="44.38487" lon="4.78487">
        <ele>101</ele>
        <time>2017-11-18T02:47:05Z</time>
      </trkpt>
      <trkpt lat="44.38482" lon="4.7846">
        <ele>102</ele>
        <time>2017-11-18T02:49:05Z</time>
      </trkpt>
      <trkpt lat="44.38433" lon="4.78366">
        <ele>100</ele>
        <time>2017-11-18T02:51:05Z</time>
      </trkpt>
      <trkpt lat="44.38433" lon="4.78322">
        <ele>99</ele>
        <time>2017-11-18T02:53:05Z</time>
      </trkpt>
      <trkpt lat="44.38508" lon="4.78298">
        <ele>102</ele>
        <time>2017-11-18T02:55:05Z</time>
      </trkpt>
      <trkpt lat="44.38624" lon="4.78274">
        <ele>109</ele>
        <time>2017-11-18T02:57:05Z</time>
      </trkpt>
      <trkpt lat="44.38664" lon="4.78266">
        <ele>111</ele>
        <time>2017-11-18T02:59:05Z</time>
      </trkpt>
      <trkpt lat="44.38744" lon="4.78257">
        <ele>113</ele>
        <time>2017-11-18T03:01:05Z</time>
      </trkpt>
      <trkpt lat="44.38761" lon="4.78276">
        <ele>115</ele>
        <time>2017-11-18T03:03:05Z</time>
      </trkpt>
      <trkpt lat="44.38799" lon="4.78295">
        <ele>116</ele>
        <time>2017-11-18T03:05:05Z</time>
      </trkpt>
      <trkpt lat="44.38795" lon="4.78306">
        <ele>117</ele>
        <time>2017-11-18T03:07:05Z</time>
      </trkpt>
      <trkpt lat="44.38836" lon="4.78325">
        <ele>119</ele>
        <time>2017-11-18T03:09:05Z</time>
      </trkpt>
      <trkpt lat="44.38862" lon="4.78342">
        <ele>120</ele>
        <time>2017-11-18T03:11:05Z</time>
      </trkpt>
      <trkpt lat="44.38886" lon="4.78354">
        <ele>120</ele>
        <time>2017-11-18T03:13:05Z</time>
      </trkpt>
      <trkpt lat="44.38894" lon="4.78351">
        <ele>120</ele>
        <time>2017-11-18T03:15:05Z</time>
      </trkpt>
      <trkpt lat="44.38894" lon="4.78339">
        <ele>120</ele>
        <time>2017-11-18T03:17:05Z</time>
      </trkpt>
      <trkpt lat="44.38904" lon="4.78339">
        <ele>120</ele>
        <time>2017-11-18T03:19:05Z</time>
      </trkpt>
      <trkpt lat="44.38925" lon="4.78246">
        <ele>123</ele>
        <time>2017-11-18T03:21:05Z</time>
      </trkpt>
      <trkpt lat="44.3895" lon="4.78237">
        <ele>127</ele>
        <time>2017-11-18T03:23:05Z</time>
      </trkpt>
      <trkpt lat="44.38945" lon="4.78159">
        <ele>130</ele>
        <time>2017-11-18T03:25:05Z</time>
      </trkpt>
      <trkpt lat="44.3896" lon="4.78106">
        <ele>136</ele>
        <time>2017-11-18T03:27:05Z</time>
      </trkpt>
      <trkpt lat="44.38988" lon="4.78032">
        <ele>143</ele>
        <time>2017-11-18T03:29:05Z</time>
      </trkpt>
      <trkpt lat="44.39021" lon="4.78009">
        <ele>147</ele>
        <time>2017-11-18T03:31:05Z</time>
      </trkpt>
      <trkpt lat="44.39026" lon="4.77956">
        <ele>149</ele>
        <time>2017-11-18T03:33:05Z</time>
      </trkpt>
      <trkpt lat="44.39065" lon="4.77901">
        <ele>156</ele>
        <time>2017-11-18T03:35:05Z</time>
      </trkpt>
      <trkpt lat="44.3915" lon="4.77883">
        <ele>163</ele>
        <time>2017-11-18T03:37:05Z</time>
      </trkpt>
      <trkpt lat="44.39162" lon="4.77874">
        <ele>163</ele>
        <time>2017-11-18T03:39:05Z</time>
      </trkpt>
      <trkpt lat="44.39164" lon="4.77859">
        <ele>164</ele>
        <time>2017-11-18T03:41:05Z</time>
      </trkpt>
      <trkpt lat="44.39203" lon="4.77788">
        <ele>165</ele>
        <time>2017-11-18T03:43:05Z</time>
      </trkpt>
      <trkpt lat="44.39211" lon="4.77755">
        <ele>165</ele>
        <time>2017-11-18T03:45:05Z</time>
      </trkpt>
      <trkpt lat="44.39213" lon="4.77724">
        <ele>165</ele>
        <time>2017-11-18T03:47:05Z</time>
      </trkpt>
      <trkpt lat="44.39226" lon="4.77705">
        <ele>165</ele>
        <time>2017-11-18T03:49:05Z</time>
      </trkpt>
      <trkpt lat="44.39297" lon="4.77691">
        <ele>163</ele>
        <time>2017-11-18T03:51:05Z</time>
      </trkpt>
      <trkpt lat="44.39327" lon="4.77644">
        <ele>160</ele>
        <time>2017-11-18T03:53:05Z</time>
      </trkpt>
      <trkpt lat="44.39341" lon="4.77602">
        <ele>158</ele>
        <time>2017-11-18T03:55:05Z</time>
      </trkpt>
      <trkpt lat="44.39372" lon="4.77596">
        <ele>157</ele>
        <time>2017-11-18T03:57:05Z</time>
      </trkpt>
      <trkpt lat="44.39387" lon="4.77608">
        <ele>157</ele>
        <time>2017-11-18T03:59:05Z</time>
      </trkpt>
      <trkpt lat="44.39407" lon="4.77609">
        <ele>157</ele>
        <time>2017-11-18T04:01:05Z</time>
      </trkpt>
      <trkpt lat="44.39441" lon="4.77592">
        <ele>157</ele>
        <time>2017-11-18T04:03:05Z</time>
      </trkpt>
      <trkpt lat="44.39454" lon="4.77567">
        <ele>156</ele>
        <time>2017-11-18T04:05:05Z</time>
      </trkpt>
      <trkpt lat="44.39463" lon="4.7756">
        <ele>156</ele>
        <time>2017-11-18T04:07:05Z</time>
      </trkpt>
      <trkpt lat="44.39464" lon="4.77534">
        <ele>155</ele>
        <time>2017-11-18T04:09:05Z</time>
      </trkpt>
      <trkpt lat="44.39479" lon="4.77487">
        <ele>154</ele>
        <time>2017-11-18T04:11:05Z</time>
      </trkpt>
      <trkpt lat="44.39496" lon="4.77435">
        <ele>153</ele>
        <time>2017-11-18T04:13:05Z</time>
      </trkpt>
      <trkpt lat="44.395" lon="4.7742">
        <ele>153</ele>
        <time>2017-11-18T04:15:05Z</time>
      </trkpt>
      <trkpt lat="44.39488" lon="4.77424">
        <ele>153</ele>
        <time>2017-11-18T04:17:05Z</time>
      </trkpt>
      <trkpt lat="44.39468" lon="4.77451">
        <ele>153</ele>
        <time>2017-11-18T04:19:05Z</time>
      </trkpt>
      <trkpt lat="44.39459" lon="4.77473">
        <ele>154</ele>
        <time>2017-11-18T04:21:05Z</time>
      </trkpt>
      <trkpt lat="44.39444" lon="4.77482">
        <ele>154</ele>
        <time>2017-11-18T04:23:05Z</time>
      </trkpt>
      <trkpt lat="44.39459" lon="4.77474">
        <ele>154</ele>
        <time>2017-11-18T04:25:05Z</time>
      </trkpt>
      <trkpt lat="44.39467" lon="4.77451">
        <ele>153</ele>
        <time>2017-11-18T04:27:05Z</time>
      </trkpt>
      <trkpt lat="44.39488" lon="4.77425">
        <ele>153</ele>
        <time>2017-11-18T04:29:05Z</time>
      </trkpt>
      <trkpt lat="44.395" lon="4.77419">
        <ele>153</ele>
        <time>2017-11-18T04:31:05Z</time>
      </trkpt>
      <trkpt lat="44.39496" lon="4.77435">
        <ele>153</ele>
        <time>2017-11-18T04:33:05Z</time>
      </trkpt>
      <trkpt lat="44.39478" lon="4.77487">
        <ele>154</ele>
        <time>2017-11-18T04:35:05Z</time>
      </trkpt>
      <trkpt lat="44.39464" lon="4.77535">
        <ele>155</ele>
        <time>2017-11-18T04:37:05Z</time>
      </trkpt>
      <trkpt lat="44.39463" lon="4.7756">
        <ele>156</ele>
        <time>2017-11-18T04:39:05Z</time>
      </trkpt>
      <trkpt lat="44.39454" lon="4.77567">
        <ele>156</ele>
        <time>2017-11-18T04:41:05Z</time>
      </trkpt>
      <trkpt lat="44.39441" lon="4.77592">
        <ele>157</ele>
        <time>2017-11-18T04:43:05Z</time>
      </trkpt>
      <trkpt lat="44.39408" lon="4.77609">
        <ele>157</ele>
        <time>2017-11-18T04:45:05Z</time>
      </trkpt>
      <trkpt lat="44.39387" lon="4.77609">
        <ele>157</ele>
        <time>2017-11-18T04:47:05Z</time>
      </trkpt>
      <trkpt lat="44.39372" lon="4.77594">
        <ele>157</ele>
        <time>2017-11-18T04:49:05Z</time>
      </trkpt>
      <trkpt lat="44.39341" lon="4.77603">
        <ele>158</ele>
        <time>2017-11-18T04:51:05Z</time>
      </trkpt>
      <trkpt lat="44.39319" lon="4.77599">
        <ele>159</ele>
        <time>2017-11-18T04:53:05Z</time>
      </trkpt>
      <trkpt lat="44.39295" lon="4.77589">
        <ele>160</ele>
        <time>2017-11-18T04:55:05Z</time>
      </trkpt>
      <trkpt lat="44.39262" lon="4.77592">
        <ele>162</ele>
        <time>2017-11-18T04:57:05Z</time>
      </trkpt>
      <trkpt lat="44.39204" lon="4.77573">
        <ele>163</ele>
        <time>2017-11-18T04:59:05Z</time>
      </trkpt>
      <trkpt lat="44.39172" lon="4.77588">
        <ele>163</ele>
        <time>2017-11-18T05:01:05Z</time>
      </trkpt>
      <trkpt lat="44.39118" lon="4.77496">
        <ele>163</ele>
        <time>2017-11-18T05:03:05Z</time>
      </trkpt>
      <trkpt lat="44.39034" lon="4.77485">
        <ele>164</ele>
        <time>2017-11-18T05:05:05Z</time>
      </trkpt>
      <trkpt lat="44.38988" lon="4.77382">
        <ele>166</ele>
        <time>2017-11-18T05:07:05Z</time>
      </trkpt>
      <trkpt lat="44.3885" lon="4.7727">
        <ele>164</ele>
        <time>2017-11-18T05:09:05Z</time>
      </trkpt>
      <trkpt lat="44.38807" lon="4.77112">
        <ele>164</ele>
        <time>2017-11-18T05:11:05Z</time>
      </trkpt>
      <trkpt lat="44.3883" lon="4.77063">
        <ele>166</ele>
        <time>2017-11-18T05:13:05Z</time>
      </trkpt>
      <trkpt lat="44.38847" lon="4.7701">
        <ele>165</ele>
        <time>2017-11-18T05:15:05Z</time>
      </trkpt>
      <trkpt lat="44.38862" lon="4.7696">
        <ele>164</ele>
        <time>2017-11-18T05:17:05Z</time>
      </trkpt>
      <trkpt lat="44.38836" lon="4.76888">
        <ele>164</ele>
        <time>2017-11-18T05:19:05Z</time>
      </trkpt>
      <trkpt lat="44.38831" lon="4.76855">
        <ele>165</ele>
        <time>2017-11-18T05:21:05Z</time>
      </trkpt>
      <trkpt lat="44.38825" lon="4.76807">
        <ele>164</ele>
        <time>2017-11-18T05:23:05Z</time>
      </trkpt>
      <trkpt lat="44.38812" lon="4.76792">
        <ele>161</ele>
        <time>2017-11-18T05:25:05Z</time>
      </trkpt>
      <trkpt lat="44.38812" lon="4.76764">
        <ele>160</ele>
        <time>2017-11-18T05:27:05Z</time>
      </trkpt>
      <trkpt lat="44.38809" lon="4.76757">
        <ele>160</ele>
        <time>2017-11-18T05:29:05Z</time>
      </trkpt>
      <trkpt lat="44.38807" lon="4.76759">
        <ele>159</ele>
        <time>2017-11-18T05:31:05Z</time>
      </trkpt>
      <trkpt lat="44.38805" lon="4.76757">
        <ele>159</ele>
        <time>2017-11-18T05:33:05Z</time>
      </trkpt>
      <trkpt lat="44.38808" lon="4.76759">
        <ele>159</ele>
        <time>2017-11-18T05:35:05Z</time>
      </trkpt>
      <trkpt lat="44.38809" lon="4.76755">
        <ele>160</ele>
        <time>2017-11-18T05:37:05Z</time>
      </trkpt>
      <trkpt lat="44.38818" lon="4.76719">
        <ele>160</ele>
        <time>2017-11-18T05:39:05Z</time>
      </trkpt>
      <trkpt lat="44.38832" lon="4.76693">
        <ele>162</ele>
        <time>2017-11-18T05:41:05Z</time>
      </trkpt>
      <trkpt lat="44.38826" lon="4.76641">
        <ele>158</ele>
        <time>2017-11-18T05:43:05Z</time>
      </trkpt>
      <trkpt lat="44.38832" lon="4.76608">
        <ele>158</ele>
        <time>2017-11-18T05:45:05Z</time>
      </trkpt>
      <trkpt lat="44.38822" lon="4.76509">
        <ele>152</ele>
        <time>2017-11-18T05:47:05Z</time>
      </trkpt>
      <trkpt lat="44.38809" lon="4.76419">
        <ele>146</ele>
        <time>2017-11-18T05:49:05Z</time>
      </trkpt>
      <trkpt lat="44.38784" lon="4.76361">
        <ele>147</ele>
        <time>2017-11-18T05:51:05Z</time>
      </trkpt>
      <trkpt lat="44.38744" lon="4.76298">
        <ele>151</ele>
        <time>2017-11-18T05:53:05Z</time>
      </trkpt>
      <trkpt lat="44.38732" lon="4.7624">
        <ele>150</ele>
        <time>2017-11-18T05:55:05Z</time>
      </trkpt>
      <trkpt lat="44.38773" lon="4.76202">
        <ele>148</ele>
        <time>2017-11-18T05:57:05Z</time>
      </trkpt>
      <trkpt lat="44.38801" lon="4.76103">
        <ele>145</ele>
        <time>2017-11-18T05:59:05Z</time>
      </trkpt>
      <trkpt lat="44.38805" lon="4.76066">
        <ele>143</ele>
        <time>2017-11-18T06:01:05Z</time>
      </trkpt>
      <trkpt lat="44.38828" lon="4.76038">
        <ele>138</ele>
        <time>2017-11-18T06:03:05Z</time>
      </trkpt>
      <trkpt lat="44.38841" lon="4.75986">
        <ele>133</ele>
        <time>2017-11-18T06:05:05Z</time>
      </trkpt>
      <trkpt lat="44.38845" lon="4.75943">
        <ele>129</ele>
        <time>2017-11-18T06:07:05Z</time>
      </trkpt>
      <trkpt lat="44.38876" lon="4.75897">
        <ele>120</ele>
        <time>2017-11-18T06:09:05Z</time>
      </trkpt>
      <trkpt lat="44.38879" lon="4.75861">
        <ele>115</ele>
        <time>2017-11-18T06:11:05Z</time>
      </trkpt>
      <trkpt lat="44.38902" lon="4.75824">
        <ele>107</ele>
        <time>2017-11-18T06:13:05Z</time>
      </trkpt>
      <trkpt lat="44.38907" lon="4.75796">
        <ele>104</ele>
        <time>2017-11-18T06:15:05Z</time>
      </trkpt>
      <trkpt lat="44.3892" lon="4.75822">
        <ele>103</ele>
        <time>2017-11-18T06:17:05Z</time>
      </trkpt>
      <trkpt lat="44.38966" lon="4.75797">
        <ele>98</ele>
        <time>2017-11-18T06:19:05Z</time>
      </trkpt>
      <trkpt lat="44.39002" lon="4.75788">
        <ele>96</ele>
        <time>2017-11-18T06:21:05Z</time>
      </trkpt>
      <trkpt lat="44.39021" lon="4.75782">
        <ele>98</ele>
        <time>2017-11-18T06:23:05Z</time>
      </trkpt>
      <trkpt lat="44.39021" lon="4.75766">
        <ele>98</ele>
        <time>2017-11-18T06:25:05Z</time>
      </trkpt>
      <trkpt lat="44.39026" lon="4.75754">
        <ele>99</ele>
        <time>2017-11-18T06:27:05Z</time>
      </trkpt>
      <trkpt lat="44.39048" lon="4.7575">
        <ele>102</ele>
        <time>2017-11-18T06:29:05Z</time>
      </trkpt>
      <trkpt lat="44.39087" lon="4.75721">
        <ele>110</ele>
        <time>2017-11-18T06:31:05Z</time>
      </trkpt>
      <trkpt lat="44.391" lon="4.75715">
        <ele>113</ele>
        <time>2017-11-18T06:33:05Z</time>
      </trkpt>
      <trkpt lat="44.39119" lon="4.75689">
        <ele>119</ele>
        <time>2017-11-18T06:35:05Z</time>
      </trkpt>
      <trkpt lat="44.39104" lon="4.75648">
        <ele>120</ele>
        <time>2017-11-18T06:37:05Z</time>
      </trkpt>
      <trkpt lat="44.3909" lon="4.75597">
        <ele>123</ele>
        <time>2017-11-18T06:39:05Z</time>
      </trkpt>
      <trkpt lat="44.39086" lon="4.75576">
        <ele>124</ele>
        <time>2017-11-18T06:41:05Z</time>
      </trkpt>
      <trkpt lat="44.39128" lon="4.75553">
        <ele>132</ele>
        <time>2017-11-18T06:43:05Z</time>
      </trkpt>
      <trkpt lat="44.39199" lon="4.75481">
        <ele>152</ele>
        <time>2017-11-18T06:45:05Z</time>
      </trkpt>
      <trkpt lat="44.39222" lon="4.75495">
        <ele>155</ele>
        <time>2017-11-18T06:47:05Z</time>
      </trkpt>
      <trkpt lat="44.39257" lon="4.75506">
        <ele>160</ele>
        <time>2017-11-18T06:49:05Z</time>
      </trkpt>
      <trkpt lat="44.39304" lon="4.75571">
        <ele>159</ele>
        <time>2017-11-18T06:51:05Z</time>
      </trkpt>
      <trkpt lat="44.39316" lon="4.75567">
        <ele>161</ele>
        <time>2017-11-18T06:53:05Z</time>
      </trkpt>
      <trkpt lat="44.39308" lon="4.75545">
        <ele>163</ele>
        <time>2017-11-18T06:55:05Z</time>
      </trkpt>
      <trkpt lat="44.39291" lon="4.75521">
        <ele>164</ele>
        <time>2017-11-18T06:57:05Z</time>
      </trkpt>
      <trkpt lat="44.39297" lon="4.75513">
        <ele>166</ele>
        <time>2017-11-18T06:59:05Z</time>
      </trkpt>
      <trkpt lat="44.39326" lon="4.7555">
        <ele>165</ele>
        <time>2017-11-18T07:01:05Z</time>
      </trkpt>
      <trkpt lat="44.39337" lon="4.75545">
        <ele>168</ele>
        <time>2017-11-18T07:03:05Z</time>
      </trkpt>
      <trkpt lat="44.39336" lon="4.75509">
        <ele>172</ele>
        <time>2017-11-18T07:05:05Z</time>
      </trkpt>
      <trkpt lat="44.39374" lon="4.75428">
        <ele>181</ele>
        <time>2017-11-18T07:07:05Z</time>
      </trkpt>
      <trkpt lat="44.39382" lon="4.75401">
        <ele>181</ele>
        <time>2017-11-18T07:09:05Z</time>
      </trkpt>
      <trkpt lat="44.39406" lon="4.7538">
        <ele>179</ele>
        <time>2017-11-18T07:11:05Z</time>
      </trkpt>
      <trkpt lat="44.39409" lon="4.7537">
        <ele>179</ele>
        <time>2017-11-18T07:13:05Z</time>
      </trkpt>
      <trkpt lat="44.39412" lon="4.75342">
        <ele>177</ele>
        <time>2017-11-18T07:15:05Z</time>
      </trkpt>
      <trkpt lat="44.39382" lon="4.75288">
        <ele>173</ele>
        <time>2017-11-18T07:17:05Z</time>
      </trkpt>
      <trkpt lat="44.39358" lon="4.7528">
        <ele>176</ele>
        <time>2017-11-18T07:19:05Z</time>
      </trkpt>
      <trkpt lat="44.39349" lon="4.75278">
        <ele>177</ele>
        <time>2017-11-18T07:21:05Z</time>
      </trkpt>
      <trkpt lat="44.39341" lon="4.75286">
        <ele>178</ele>
        <time>2017-11-18T07:23:05Z</time>
      </trkpt>
      <trkpt lat="44.39323" lon="4.7529">
        <ele>179</ele>
        <time>2017-11-18T07:25:05Z</time>
      </trkpt>
      <trkpt lat="44.39312" lon="4.75278">
        <ele>177</ele>
        <time>2017-11-18T07:27:05Z</time>
      </trkpt>
      <trkpt lat="44.39294" lon="4.7527">
        <ele>176</ele>
        <time>2017-11-18T07:29:05Z</time>
      </trkpt>
      <trkpt lat="44.39294" lon="4.7523">
        <ele>169</ele>
        <time>2017-11-18T07:31:05Z</time>
      </trkpt>
      <trkpt lat="44.39285" lon="4.75233">
        <ele>169</ele>
        <time>2017-11-18T07:33:05Z</time>
      </trkpt>
      <trkpt lat="44.39272" lon="4.75235">
        <ele>169</ele>
        <time>2017-11-18T07:35:05Z</time>
      </trkpt>
      <trkpt lat="44.39268" lon="4.75254">
        <ele>173</ele>
        <time>2017-11-18T07:37:05Z</time>
      </trkpt>
      <trkpt lat="44.39268" lon="4.75267">
        <ele>174</ele>
        <time>2017-11-18T07:39:05Z</time>
      </trkpt>
      <trkpt lat="44.39263" lon="4.7527">
        <ele>174</ele>
        <time>2017-11-18T07:41:05Z</time>
      </trkpt>
      <trkpt lat="44.39267" lon="4.75326">
        <ele>179</ele>
        <time>2017-11-18T07:43:05Z</time>
      </trkpt>
      <trkpt lat="44.3924" lon="4.75336">
        <ele>175</ele>
        <time>2017-11-18T07:45:05Z</time>
      </trkpt>
      <trkpt lat="44.39237" lon="4.75347">
        <ele>174</ele>
        <time>2017-11-18T07:47:05Z</time>
      </trkpt>
      <trkpt lat="44.39257" lon="4.75386">
        <ele>174</ele>
        <time>2017-11-18T07:49:05Z</time>
      </trkpt>
      <trkpt lat="44.39243" lon="4.75371">
        <ele>173</ele>
        <time>2017-11-18T07:51:05Z</time>
      </trkpt>
      <trkpt lat="44.39232" lon="4.75346">
        <ele>172</ele>
        <time>2017-11-18T07:53:05Z</time>
      </trkpt>
      <trkpt lat="44.39219" lon="4.75315">
        <ele>169</ele>
        <time>2017-11-18T07:55:05Z</time>
      </trkpt>
      <trkpt lat="44.39214" lon="4.75281">
        <ele>166</ele>
        <time>2017-11-18T07:57:05Z</time>
      </trkpt>
      <trkpt lat="44.39213" lon="4.75267">
        <ele>165</ele>
        <time>2017-11-18T07:59:05Z</time>
      </trkpt>
      <trkpt lat="44.39192" lon="4.7527">
        <ele>160</ele>
        <time>2017-11-18T08:01:05Z</time>
      </trkpt>
      <trkpt lat="44.39191" lon="4.75293">
        <ele>161</ele>
        <time>2017-11-18T08:03:05Z</time>
      </trkpt>
      <trkpt lat="44.39197" lon="4.75328">
        <ele>164</ele>
        <time>2017-11-18T08:05:05Z</time>
      </trkpt>
      <trkpt lat="44.3918" lon="4.75333">
        <ele>160</ele>
        <time>2017-11-18T08:07:05Z</time>
      </trkpt>
      <trkpt lat="44.39168" lon="4.75297">
        <ele>156</ele>
        <time>2017-11-18T08:09:05Z</time>
      </trkpt>
      <trkpt lat="44.39167" lon="4.75279">
        <ele>155</ele>
        <time>2017-11-18T08:11:05Z</time>
      </trkpt>
      <trkpt lat="44.39129" lon="4.75276">
        <ele>147</ele>
        <time>2017-11-18T08:13:05Z</time>
      </trkpt>
      <trkpt lat="44.3912" lon="4.75274">
        <ele>145</ele>
        <time>2017-11-18T08:15:05Z</time>
      </trkpt>
      <trkpt lat="44.39112" lon="4.75264">
        <ele>144</ele>
        <time>2017-11-18T08:17:05Z</time>
      </trkpt>
      <trkpt lat="44.39105" lon="4.75266">
        <ele>142</ele>
        <time>2017-11-18T08:19:05Z</time>
      </trkpt>
      <trkpt lat="44.39087" lon="4.75254">
        <ele>139</ele>
        <time>2017-11-18T08:21:05Z</time>
      </trkpt>
      <trkpt lat="44.39036" lon="4.75253">
        <ele>130</ele>
        <time>2017-11-18T08:23:05Z</time>
      </trkpt>
      <trkpt lat="44.39016" lon="4.75263">
        <ele>127</ele>
        <time>2017-11-18T08:25:05Z</time>
      </trkpt>
      <trkpt lat="44.38988" lon="4.7526">
        <ele>122</ele>
        <time>2017-11-18T08:27:05Z</time>
      </trkpt>
      <trkpt lat="44.38959" lon="4.75237">
        <ele>116</ele>
        <time>2017-11-18T08:29:05Z</time>
      </trkpt>
      <trkpt lat="44.38937" lon="4.75222">
        <ele>111</ele>
        <time>2017-11-18T08:31:05Z</time>
      </trkpt>
      <trkpt lat="44.38909" lon="4.75215">
        <ele>105</ele>
        <time>2017-11-18T08:33:05Z</time>
      </trkpt>
      <trkpt lat="44.38884" lon="4.75208">
        <ele>100</ele>
        <time>2017-11-18T08:35:05Z</time>
      </trkpt>
      <trkpt lat="44.38876" lon="4.75236">
        <ele>98</ele>
        <time>2017-11-18T08:37:05Z</time>
      </trkpt>
      <trkpt lat="44.38839" lon="4.75217">
        <ele>91</ele>
        <time>2017-11-18T08:39:05Z</time>
      </trkpt>
      <trkpt lat="44.38795" lon="4.7517">
        <ele>86</ele>
        <time>2017-11-18T08:41:05Z</time>
      </trkpt>
      <trkpt lat="44.38758" lon="4.75105">
        <ele>83</ele>
        <time>2017-11-18T08:43:05Z</time>
      </trkpt>
      <trkpt lat="44.3869" lon="4.74955">
        <ele>72</ele>
        <time>2017-11-18T08:45:05Z</time>
      </trkpt>
      <trkpt lat="44.3866" lon="4.7485">
        <ele>68</ele>
        <time>2017-11-18T08:47:05Z</time>
      </trkpt>
      <trkpt lat="44.386" lon="4.74698">
        <ele>65</ele>
        <time>2017-11-18T08:49:05Z</time>
      </trkpt>
      <trkpt lat="44.38526" lon="4.7452">
        <ele>63</ele>
        <time>2017-11-18T08:51:05Z</time>
      </trkpt>
      <trkpt lat="44.3845" lon="4.74333">
        <ele>62</ele>
        <time>2017-11-18T08:53:05Z</time>
      </trkpt>
      <trkpt lat="44.38431" lon="4.74241">
        <ele>62</ele>
        <time>2017-11-18T08:55:05Z</time>
      </trkpt>
      <trkpt lat="44.38424" lon="4.74176">
        <ele>60</ele>
        <time>2017-11-18T08:57:05Z</time>
      </trkpt>
    </trkseg>
  </trk>
</gpx>